createdAt,value
2023-02-27T00:00:25.594Z,1020.31
2023-02-27T00:01:25.811Z,1020.31
2023-02-27T00:02:39.122Z,1020.37
2023-02-27T00:03:25.485Z,1020.36
2023-02-27T00:04:25.420Z,1020.63
2023-02-27T00:05:25.382Z,1020.31
2023-02-27T05:10:49.627Z,1020.68
2023-02-27T05:58:45.189Z,1021.08
2023-02-27T05:59:45.151Z,1021.07
2023-02-27T06:00:45.083Z,1021.08
2023-02-27T06:01:46.380Z,1021.04
2023-02-27T06:02:44.974Z,1021.14
2023-02-27T06:03:44.952Z,1021.13
2023-02-27T06:04:44.887Z,1021.15
2023-02-27T06:05:44.835Z,1021.16
2023-02-27T06:06:44.778Z,1021.18
2023-02-27T06:07:44.732Z,1021.23
2023-02-27T06:08:44.699Z,1021.21
2023-02-27T06:09:44.704Z,1021.19
2023-02-27T06:10:44.584Z,1021.30
2023-02-27T06:11:44.544Z,1021.27
2023-02-27T06:12:44.512Z,1021.26
2023-02-27T06:13:44.440Z,1021.40
2023-02-27T06:14:44.404Z,1021.66
2023-02-27T06:15:44.342Z,1021.30
2023-02-27T06:16:44.364Z,1021.28
2023-02-27T06:17:44.245Z,1021.36
2023-02-27T06:18:44.195Z,1021.37
2023-02-27T06:19:44.172Z,1021.40
2023-02-27T06:20:44.129Z,1021.43
2023-02-27T06:21:44.079Z,1021.44
2023-02-27T06:22:44.010Z,1021.45
2023-02-27T06:23:43.958Z,1021.49
2023-02-27T06:24:43.900Z,1021.51
2023-02-27T06:25:43.861Z,1021.56
2023-02-27T06:26:43.839Z,1021.56
2023-02-27T06:27:43.771Z,1021.58
2023-02-27T06:28:43.771Z,1021.58
2023-02-27T06:29:43.667Z,1021.60
2023-02-27T06:30:45.334Z,1021.64
2023-02-27T06:31:43.617Z,1021.66
2023-02-27T06:32:43.522Z,1021.67
2023-02-27T06:33:43.474Z,1021.65
2023-02-27T06:34:43.417Z,1021.66
2023-02-27T06:35:43.414Z,1021.72
2023-02-27T06:36:43.326Z,1021.73
2023-02-27T06:37:43.288Z,1021.72
2023-02-27T06:38:43.226Z,1021.76
2023-02-27T06:39:43.182Z,1021.75
2023-02-27T06:40:43.125Z,1021.81
2023-02-27T06:41:43.104Z,1021.79
2023-02-27T06:42:43.049Z,1021.75
2023-02-27T06:43:42.985Z,1021.78
2023-02-27T06:44:42.940Z,1022.13
2023-02-27T06:45:42.893Z,1022.15
2023-02-27T06:46:42.843Z,1021.84
2023-02-27T06:47:42.805Z,1022.15
2023-02-27T06:48:42.776Z,1022.15
2023-02-27T06:49:42.698Z,1022.15
2023-02-27T06:50:42.683Z,1022.15
2023-02-27T06:51:44.911Z,1022.17
2023-02-27T06:52:42.568Z,1022.17
2023-02-27T06:53:42.521Z,1022.18
2023-02-27T06:54:42.459Z,1022.19
2023-02-27T06:55:42.414Z,1021.84
2023-02-27T06:56:42.362Z,1021.85
2023-02-27T06:57:42.321Z,1021.86
2023-02-27T06:58:42.277Z,1021.91
2023-02-27T06:59:42.224Z,1022.28
2023-02-27T07:00:42.167Z,1022.38
2023-02-27T07:01:42.185Z,1022.03
2023-02-27T07:02:42.072Z,1022.03
2023-02-27T07:03:42.024Z,1022.40
2023-02-27T07:04:42.017Z,1022.44
2023-02-27T07:05:41.959Z,1022.46
2023-02-27T07:07:36.367Z,1022.55
2023-02-27T07:07:41.847Z,1022.58
2023-02-27T07:09:01.476Z,1022.57
2023-02-27T07:09:41.746Z,1022.54
2023-02-27T07:10:41.697Z,1022.22
2023-02-27T07:11:41.663Z,1022.60
2023-02-27T07:12:41.620Z,1022.64
2023-02-27T07:13:41.563Z,1022.67
2023-02-27T07:14:41.511Z,1022.69
2023-02-27T07:15:41.506Z,1022.77
2023-02-27T07:16:41.423Z,1022.43
2023-02-27T07:17:41.403Z,1022.47
2023-02-27T07:18:41.331Z,1022.52
2023-02-27T07:19:41.289Z,1022.53
2023-02-27T07:20:41.242Z,1022.57
2023-02-27T07:21:41.200Z,1022.59
2023-02-27T07:22:41.153Z,1022.64
2023-02-27T07:23:41.120Z,1022.66
2023-02-27T07:24:41.076Z,1022.68
2023-02-27T07:25:41.028Z,1022.68
2023-02-27T07:26:40.982Z,1022.72
2023-02-27T07:27:40.937Z,1022.72
2023-02-27T07:28:40.962Z,1023.06
2023-02-27T07:29:40.855Z,1022.76
2023-02-27T07:30:40.833Z,1023.17
2023-02-27T07:31:40.764Z,1022.81
2023-02-27T07:32:40.714Z,1022.83
2023-02-27T07:33:40.683Z,1023.20
2023-02-27T07:34:40.646Z,1022.92
2023-02-27T07:35:40.621Z,1022.94
2023-02-27T07:36:40.558Z,1022.97
2023-02-27T07:37:40.510Z,1023.03
2023-02-27T07:38:40.467Z,1023.04
2023-02-27T07:39:40.437Z,1023.08
2023-02-27T07:40:40.383Z,1023.08
2023-02-27T07:41:40.351Z,1023.41
2023-02-27T07:42:40.322Z,1023.36
2023-02-27T07:43:40.264Z,1023.47
2023-02-27T07:44:40.220Z,1023.17
2023-02-27T07:45:40.183Z,1023.21
2023-02-27T07:46:40.261Z,1023.25
2023-02-27T07:47:40.102Z,1023.26
2023-02-27T07:48:40.066Z,1023.28
2023-02-27T07:49:40.016Z,1023.44
2023-02-27T07:50:40.017Z,1023.68
2023-02-27T07:51:39.943Z,1023.31
2023-02-27T07:52:39.899Z,1023.71
2023-02-27T07:53:39.874Z,1023.75
2023-02-27T07:54:39.822Z,1023.44
2023-02-27T07:55:39.797Z,1023.45
2023-02-27T07:56:39.736Z,1023.49
2023-02-27T07:57:39.694Z,1023.43
2023-02-27T07:58:39.662Z,1023.43
2023-02-27T07:59:39.617Z,1023.82
2023-02-27T08:00:39.576Z,1023.60
2023-02-27T08:01:39.566Z,1023.47
2023-02-27T08:02:39.553Z,1023.55
2023-02-27T08:03:39.482Z,1023.53
2023-02-27T08:04:39.459Z,1023.93
2023-02-27T08:05:39.409Z,1023.99
2023-02-27T08:06:39.342Z,1023.65
2023-02-27T08:07:39.318Z,1024.01
2023-02-27T08:08:39.266Z,1023.66
2023-02-27T08:09:39.241Z,1023.76
2023-02-27T08:10:39.184Z,1024.03
2023-02-27T08:11:39.171Z,1023.64
2023-02-27T08:12:39.095Z,1023.70
2023-02-27T08:14:39.041Z,1023.73
2023-02-27T08:15:38.993Z,1024.08
2023-02-27T08:16:39.036Z,1023.76
2023-02-27T08:17:38.908Z,1023.76
2023-02-27T08:18:38.869Z,1024.11
2023-02-27T08:19:38.835Z,1024.18
2023-02-27T08:20:38.800Z,1023.81
2023-02-27T08:21:38.757Z,1024.13
2023-02-27T08:22:38.732Z,1024.18
2023-02-27T08:23:38.675Z,1024.15
2023-02-27T08:24:38.652Z,1023.81
2023-02-27T08:25:38.629Z,1023.81
2023-02-27T08:26:38.581Z,1023.80
2023-02-27T08:27:38.543Z,1023.79
2023-02-27T08:28:38.530Z,1023.82
2023-02-27T08:29:42.341Z,1023.81
2023-02-27T08:30:38.414Z,1024.15
2023-02-27T08:31:38.733Z,1023.84
2023-02-27T08:32:38.320Z,1023.80
2023-02-27T08:33:39.002Z,1024.17
2023-02-27T08:34:45.714Z,1024.20
2023-02-27T08:37:09.879Z,1023.81
2023-02-27T08:38:09.823Z,1023.88
2023-02-27T08:39:09.840Z,1023.87
2023-02-27T08:40:09.764Z,1024.24
2023-02-27T08:41:09.724Z,1023.94
2023-02-27T08:42:09.670Z,1024.02
2023-02-27T08:44:56.041Z,1024.34
2023-02-27T08:45:56.018Z,1023.97
2023-02-27T08:46:55.940Z,1024.29
2023-02-27T08:47:55.897Z,1023.91
2023-02-27T08:48:55.979Z,1024.07
2023-02-27T08:49:55.827Z,1023.94
2023-02-27T08:50:57.831Z,1024.29
2023-02-27T08:51:55.767Z,1023.96
2023-02-27T08:52:55.707Z,1024.10
2023-02-27T08:53:55.672Z,1024.33
2023-02-27T08:54:55.639Z,1024.26
2023-02-27T08:55:55.596Z,1023.82
2023-02-27T08:56:55.579Z,1023.84
2023-02-27T08:57:55.525Z,1023.83
2023-02-27T08:58:55.490Z,1024.19
2023-02-27T08:59:55.461Z,1023.84
2023-02-27T09:00:55.433Z,1024.02
2023-02-27T09:01:55.370Z,1023.88
2023-02-27T09:02:55.370Z,1024.23
2023-02-27T09:03:55.300Z,1023.83
2023-02-27T09:04:55.275Z,1024.07
2023-02-27T09:05:55.221Z,1023.79
2023-02-27T09:06:55.190Z,1023.79
2023-02-27T09:07:55.155Z,1023.77
2023-02-27T09:08:55.115Z,1023.80
2023-02-27T09:09:55.097Z,1023.81
2023-02-27T09:10:55.052Z,1023.90
2023-02-27T09:11:55.015Z,1024.28
2023-02-27T09:12:54.972Z,1024.33
2023-02-27T09:13:54.944Z,1024.31
2023-02-27T09:14:54.903Z,1023.93
2023-02-27T09:15:54.858Z,1024.10
2023-02-27T09:16:54.887Z,1023.97
2023-02-27T09:17:54.776Z,1024.10
2023-02-27T09:18:54.741Z,1024.13
2023-02-27T09:19:57.248Z,1023.94
2023-02-27T09:20:54.665Z,1024.27
2023-02-27T09:21:54.664Z,1023.94
2023-02-27T09:22:54.599Z,1023.95
2023-02-27T09:23:54.580Z,1024.29
2023-02-27T09:24:54.637Z,1024.33
2023-02-27T09:25:54.472Z,1024.19
2023-02-27T09:26:54.476Z,1024.06
2023-02-27T09:27:54.396Z,1024.03
2023-02-27T09:28:54.365Z,1024.07
2023-02-27T09:29:54.328Z,1024.11
2023-02-27T09:30:54.296Z,1024.15
2023-02-27T09:31:54.328Z,1024.10
2023-02-27T09:32:54.315Z,1024.10
2023-02-27T09:33:54.186Z,1024.16
2023-02-27T09:34:54.160Z,1024.50
2023-02-27T09:35:54.100Z,1024.48
2023-02-27T09:36:54.074Z,1024.12
2023-02-27T09:37:54.024Z,1024.33
2023-02-27T09:38:54.005Z,1024.01
2023-02-27T09:39:53.954Z,1024.01
2023-02-27T09:40:53.907Z,1024.11
2023-02-27T09:41:53.873Z,1024.10
2023-02-27T09:42:53.887Z,1024.06
2023-02-27T09:43:53.800Z,1024.07
2023-02-27T09:44:53.770Z,1023.97
2023-02-27T09:45:53.767Z,1024.42
2023-02-27T09:46:53.702Z,1024.45
2023-02-27T09:47:53.666Z,1024.01
2023-02-27T09:48:53.607Z,1024.08
2023-02-27T09:49:53.587Z,1024.47
2023-02-27T09:50:53.544Z,1024.26
2023-02-27T09:51:53.590Z,1024.11
2023-02-27T09:52:53.469Z,1023.75
2023-02-27T09:53:53.426Z,1024.39
2023-02-27T09:54:53.388Z,1024.15
2023-02-27T09:55:53.344Z,1024.50
2023-02-27T09:56:53.327Z,1024.07
2023-02-27T09:57:53.271Z,1024.26
2023-02-27T09:58:53.241Z,1024.13
2023-02-27T09:59:53.200Z,1024.18
2023-02-27T10:00:53.166Z,1024.51
2023-02-27T10:01:53.130Z,1024.14
2023-02-27T10:02:53.175Z,1024.13
2023-02-27T10:03:53.055Z,1024.01
2023-02-27T10:04:53.053Z,1024.10
2023-02-27T10:05:52.978Z,1024.51
2023-02-27T10:06:52.976Z,1024.16
2023-02-27T10:07:52.939Z,1024.57
2023-02-27T10:08:52.872Z,1024.43
2023-02-27T10:09:52.845Z,1024.22
2023-02-27T10:10:52.809Z,1024.10
2023-02-27T10:11:52.768Z,1024.22
2023-02-27T10:12:52.734Z,1024.09
2023-02-27T10:13:52.703Z,1024.13
2023-02-27T10:14:52.670Z,1024.43
2023-02-27T10:15:52.619Z,1024.12
2023-02-27T10:16:52.636Z,1024.14
2023-02-27T10:17:52.572Z,1024.54
2023-02-27T10:18:52.524Z,1024.26
2023-02-27T10:19:52.489Z,1024.12
2023-02-27T10:20:52.440Z,1024.04
2023-02-27T10:21:52.443Z,1024.45
2023-02-27T10:22:52.380Z,1024.41
2023-02-27T10:23:52.331Z,1024.40
2023-02-27T10:24:52.302Z,1024.42
2023-02-27T10:25:52.265Z,1024.49
2023-02-27T10:26:52.224Z,1024.35
2023-02-27T10:27:52.186Z,1024.52
2023-02-27T10:28:52.159Z,1024.39
2023-02-27T10:29:52.133Z,1024.05
2023-02-27T10:30:52.119Z,1024.56
2023-02-27T10:31:52.069Z,1023.98
2023-02-27T10:32:52.001Z,1024.22
2023-02-27T10:33:51.984Z,1024.33
2023-02-27T10:34:51.931Z,1024.57
2023-02-27T10:35:51.983Z,1024.40
2023-02-27T10:36:51.865Z,1024.59
2023-02-27T10:37:51.830Z,1024.31
2023-02-27T10:38:51.784Z,1024.53
2023-02-27T10:39:51.762Z,1024.28
2023-02-27T10:40:51.708Z,1023.98
2023-02-27T10:50:10.739Z,1023.94
2023-02-27T10:51:10.673Z,1023.81
2023-02-27T10:52:10.661Z,1023.86
2023-02-27T10:53:10.627Z,1023.74
2023-02-27T10:54:10.557Z,1023.76
2023-02-27T10:55:10.512Z,1023.89
2023-02-27T10:56:10.468Z,1024.07
2023-02-27T10:57:10.424Z,1023.78
2023-02-27T10:58:10.390Z,1023.98
2023-02-27T10:59:10.342Z,1023.78
2023-02-27T11:00:10.329Z,1023.92
2023-02-27T11:01:10.346Z,1023.73
2023-02-27T11:02:10.214Z,1023.87
2023-02-27T11:03:10.186Z,1023.75
2023-02-27T11:04:10.168Z,1023.78
2023-02-27T11:05:10.115Z,1023.75
2023-02-27T11:06:10.055Z,1023.75
2023-02-27T11:07:10.021Z,1023.78
2023-02-27T11:08:09.970Z,1023.84
2023-02-27T11:09:09.940Z,1023.74
2023-02-27T11:10:09.889Z,1023.69
2023-02-27T11:11:09.860Z,1023.67
2023-02-27T11:12:09.816Z,1023.67
2023-02-27T11:13:09.763Z,1023.69
2023-02-27T11:14:09.727Z,1023.67
2023-02-27T11:15:09.686Z,1023.62
2023-02-27T11:16:09.707Z,1023.78
2023-02-27T11:17:09.605Z,1023.61
2023-02-27T11:18:09.568Z,1023.65
2023-02-27T11:19:09.522Z,1023.53
2023-02-27T11:20:09.473Z,1023.54
2023-02-27T11:21:09.434Z,1023.71
2023-02-27T11:22:09.404Z,1023.51
2023-02-27T11:23:09.353Z,1023.50
2023-02-27T11:24:09.315Z,1023.48
2023-02-27T11:25:09.270Z,1023.45
2023-02-27T11:26:09.229Z,1023.41
2023-02-27T11:27:09.206Z,1023.49
2023-02-27T11:28:09.160Z,1023.67
2023-02-27T11:29:09.116Z,1023.66
2023-02-27T11:30:09.132Z,1023.76
2023-02-27T11:31:09.042Z,1023.60
2023-02-27T11:32:08.986Z,1023.50
2023-02-27T11:33:08.941Z,1023.49
2023-02-27T11:34:08.910Z,1023.45
2023-02-27T11:35:08.863Z,1023.44
2023-02-27T11:36:08.830Z,1023.56
2023-02-27T11:37:08.788Z,1023.66
2023-02-27T11:38:08.731Z,1023.73
2023-02-27T11:39:08.728Z,1023.55
2023-02-27T11:40:08.648Z,1023.60
2023-02-27T11:41:08.617Z,1023.42
2023-02-27T11:42:08.564Z,1023.41
2023-02-27T11:43:08.532Z,1023.65
2023-02-27T11:44:08.491Z,1023.65
2023-02-27T11:45:08.481Z,1023.63
2023-02-27T11:46:33.236Z,1023.67
2023-02-27T11:47:08.381Z,1023.41
2023-02-27T11:48:08.323Z,1023.53
2023-02-27T11:49:08.309Z,1023.62
2023-02-27T11:50:08.236Z,1023.32
2023-02-27T11:51:08.225Z,1023.48
2023-02-27T11:52:08.171Z,1023.60
2023-02-27T11:53:08.125Z,1023.67
2023-02-27T11:54:08.081Z,1023.48
2023-02-27T11:55:08.052Z,1023.18
2023-02-27T11:56:08.022Z,1023.46
2023-02-27T11:57:08.831Z,1023.51
2023-02-27T11:58:07.914Z,1023.77
2023-02-27T11:59:18.049Z,1023.63
2023-02-27T12:00:15.379Z,1023.28
2023-02-27T12:01:19.384Z,1023.19
2023-02-27T12:02:11.375Z,1023.44
2023-02-27T12:03:41.409Z,1023.35
2023-02-27T12:05:34.399Z,1023.58
2023-02-27T12:06:18.034Z,1023.71
2023-02-27T12:07:36.895Z,1023.31
2023-02-27T12:08:11.395Z,1023.41
2023-02-27T12:09:17.880Z,1023.54
2023-02-27T12:11:43.612Z,1023.45
2023-02-27T12:12:47.061Z,1023.29
2023-02-27T12:13:47.588Z,1023.22
2023-02-27T12:15:07.066Z,1023.16
2023-02-27T12:17:13.999Z,1023.29
2023-02-27T12:18:13.893Z,1023.69
2023-02-27T12:19:13.774Z,1023.28
2023-02-27T12:20:26.001Z,1023.22
2023-02-27T12:21:18.441Z,1023.24
2023-02-27T12:22:15.760Z,1023.14
2023-02-27T12:23:36.995Z,1023.34
2023-02-27T12:24:17.448Z,1023.16
2023-02-27T12:25:33.947Z,1023.53
2023-02-27T12:26:18.000Z,1023.45
2023-02-27T12:27:16.443Z,1023.50
2023-02-27T12:28:17.488Z,1023.09
2023-02-27T12:31:54.266Z,1023.06
2023-02-27T12:32:54.632Z,1023.07
2023-02-27T12:33:54.158Z,1023.50
2023-02-27T12:34:56.649Z,1023.42
2023-02-27T12:36:02.251Z,1023.06
2023-02-27T12:36:54.166Z,1023.01
2023-02-27T12:37:53.802Z,1023.01
2023-02-27T12:38:53.810Z,1023.02
2023-02-27T12:39:53.950Z,1022.97
2023-02-27T12:40:53.805Z,1022.86
2023-02-27T12:41:53.022Z,1022.95
2023-02-27T12:42:53.595Z,1022.79
2023-02-27T12:43:53.673Z,1023.30
2023-02-27T12:44:53.793Z,1023.22
2023-02-27T12:45:53.464Z,1022.84
2023-02-27T12:46:53.833Z,1022.81
2023-02-27T12:47:53.653Z,1022.82
2023-02-27T12:48:53.945Z,1022.70
2023-02-27T12:49:53.387Z,1022.69
2023-02-27T12:50:54.144Z,1022.69
2023-02-27T12:51:53.162Z,1022.96
2023-02-27T12:52:53.329Z,1022.60
2023-02-27T12:53:53.268Z,1022.55
2023-02-27T12:54:53.912Z,1022.97
2023-02-27T12:55:53.787Z,1022.58
2023-02-27T12:56:53.071Z,1022.91
2023-02-27T12:57:56.672Z,1022.88
2023-02-27T12:58:52.529Z,1022.51
2023-02-27T12:59:52.976Z,1022.47
2023-02-27T13:00:53.027Z,1022.47
2023-02-27T13:01:52.911Z,1022.35
2023-02-27T13:02:53.150Z,1022.26
2023-02-27T13:03:52.814Z,1022.61
2023-02-27T13:04:52.848Z,1022.60
2023-02-27T13:05:52.580Z,1022.14
2023-02-27T13:06:52.815Z,1022.43
2023-02-27T13:07:52.402Z,1022.42
2023-02-27T13:08:52.623Z,1022.29
2023-02-27T13:09:52.526Z,1022.35
2023-02-27T13:10:52.517Z,1022.08
2023-02-27T13:11:52.785Z,1021.93
2023-02-27T13:12:52.607Z,1022.15
2023-02-27T13:13:52.455Z,1021.91
2023-02-27T13:14:52.516Z,1021.96
2023-02-27T13:15:52.361Z,1021.82
2023-02-27T13:16:52.393Z,1021.71
2023-02-27T13:17:51.801Z,1021.73
2023-02-27T13:18:52.189Z,1021.80
2023-02-27T13:19:52.151Z,1021.81
2023-02-27T13:20:52.158Z,1021.80
2023-02-27T13:21:52.105Z,1021.66
2023-02-27T13:22:52.848Z,1021.58
2023-02-27T13:23:51.969Z,1021.68
2023-02-27T13:24:51.997Z,1021.92
2023-02-27T13:25:52.102Z,1021.87
2023-02-27T13:26:51.585Z,1021.76
2023-02-27T13:27:52.026Z,1021.58
2023-02-27T13:28:56.138Z,1021.62
2023-02-27T13:30:13.518Z,1021.80
2023-02-27T13:30:51.862Z,1021.80
2023-02-27T13:31:52.307Z,1021.41
2023-02-27T13:32:52.486Z,1021.40
2023-02-27T13:33:51.659Z,1021.44
2023-02-27T13:34:51.244Z,1021.44
2023-02-27T13:35:51.640Z,1021.49
2023-02-27T13:36:54.751Z,1021.37
2023-02-27T13:37:53.205Z,1021.36
2023-02-27T13:38:57.229Z,1021.55
2023-02-27T13:39:54.352Z,1021.32
2023-02-27T13:40:54.184Z,1021.31
2023-02-27T13:41:52.181Z,1021.26
2023-02-27T13:42:51.254Z,1021.34
2023-02-27T13:43:52.808Z,1021.28
2023-02-27T13:44:50.930Z,1021.25
2023-02-27T13:45:51.079Z,1021.45
2023-02-27T13:46:51.087Z,1021.50
2023-02-27T13:47:50.737Z,1021.25
2023-02-27T13:48:50.764Z,1021.60
2023-02-27T13:49:50.888Z,1021.30
2023-02-27T13:50:50.827Z,1021.44
2023-02-27T13:51:50.793Z,1021.30
2023-02-27T13:52:50.297Z,1021.61
2023-02-27T13:53:50.811Z,1021.38
2023-02-27T13:54:51.911Z,1021.58
2023-02-27T13:55:50.766Z,1021.24
2023-02-27T13:56:50.672Z,1021.29
2023-02-27T13:57:50.629Z,1021.21
2023-02-27T13:58:50.128Z,1021.50
2023-02-27T13:59:50.527Z,1021.62
2023-02-27T14:00:50.469Z,1021.24
2023-02-27T14:01:50.336Z,1021.22
2023-02-27T14:02:58.736Z,1021.59
2023-02-27T14:03:50.301Z,1021.55
2023-02-27T14:04:50.408Z,1021.31
2023-02-27T14:05:50.100Z,1021.35
2023-02-27T14:06:50.369Z,1021.25
2023-02-27T14:07:50.223Z,1021.26
2023-02-27T14:08:50.378Z,1021.66
2023-02-27T14:09:49.974Z,1021.76
2023-02-27T14:10:50.229Z,1021.25
2023-02-27T14:11:49.488Z,1021.41
2023-02-27T14:12:50.264Z,1021.60
2023-02-27T14:13:50.726Z,1021.69
2023-02-27T14:14:49.323Z,1021.25
2023-02-27T14:15:49.735Z,1021.33
2023-02-27T14:16:50.789Z,1021.45
2023-02-27T14:17:52.385Z,1021.36
2023-02-27T14:18:49.276Z,1021.39
2023-02-27T14:19:49.480Z,1021.37
2023-02-27T14:20:49.419Z,1021.38
2023-02-27T14:21:49.346Z,1021.51
2023-02-27T14:22:49.457Z,1021.38
2023-02-27T14:23:49.145Z,1021.31
2023-02-27T14:25:01.536Z,1021.38
2023-02-27T14:25:49.014Z,1021.40
2023-02-27T14:26:48.432Z,1021.37
2023-02-27T14:27:48.345Z,1021.75
2023-02-27T14:28:48.236Z,1021.60
2023-02-27T14:29:48.212Z,1021.32
2023-02-27T14:30:49.112Z,1021.39
2023-02-27T14:31:49.140Z,1021.67
2023-02-27T14:32:48.074Z,1021.36
2023-02-27T14:33:48.742Z,1021.29
2023-02-27T14:34:48.600Z,1021.20
2023-02-27T14:35:48.830Z,1021.30
2023-02-27T14:36:48.916Z,1021.27
2023-02-27T14:37:48.733Z,1021.65
2023-02-27T14:38:48.788Z,1021.23
2023-02-27T14:39:48.578Z,1021.29
2023-02-27T14:40:48.569Z,1021.50
2023-02-27T14:41:47.679Z,1021.30
2023-02-27T14:42:48.616Z,1021.32
2023-02-27T14:43:48.479Z,1021.61
2023-02-27T14:44:48.458Z,1021.47
2023-02-27T14:45:48.436Z,1021.62
2023-02-27T14:46:48.333Z,1021.30
2023-02-27T14:47:48.308Z,1021.62
2023-02-27T14:48:48.241Z,1021.36
2023-02-27T14:49:48.359Z,1021.54
2023-02-27T14:50:48.108Z,1021.64
2023-02-27T14:51:47.247Z,1021.40
2023-02-27T14:52:48.222Z,1021.41
2023-02-27T14:53:50.092Z,1021.45
2023-02-27T14:54:47.913Z,1021.47
2023-02-27T14:55:47.843Z,1021.39
2023-02-27T14:56:47.809Z,1021.54
2023-02-27T14:57:47.869Z,1021.58
2023-02-27T14:58:52.360Z,1021.46
2023-02-27T14:59:47.714Z,1021.46
2023-02-27T15:00:47.702Z,1021.41
2023-02-27T15:01:47.809Z,1021.75
2023-02-27T15:02:47.787Z,1021.39
2023-02-27T15:03:47.948Z,1021.40
2023-02-27T15:04:47.634Z,1021.42
2023-02-27T15:05:46.662Z,1021.51
2023-02-27T15:06:46.574Z,1021.51
2023-02-27T15:07:46.541Z,1021.53
2023-02-27T15:08:46.522Z,1021.41
2023-02-27T15:09:46.473Z,1021.41
2023-02-27T15:10:46.404Z,1021.73
2023-02-27T15:11:57.542Z,1021.38
2023-02-27T15:12:46.344Z,1021.38
2023-02-27T15:13:46.302Z,1021.41
2023-02-27T15:14:46.247Z,1021.36
2023-02-27T15:15:46.230Z,1021.68
2023-02-27T15:16:46.206Z,1021.40
2023-02-27T15:17:46.121Z,1021.36
2023-02-27T15:18:46.071Z,1021.79
2023-02-27T15:19:46.030Z,1021.67
2023-02-27T15:20:45.983Z,1021.52
2023-02-27T15:21:45.958Z,1021.53
2023-02-27T15:22:45.882Z,1021.83
2023-02-27T15:23:45.843Z,1021.49
2023-02-27T15:24:50.363Z,1021.86
2023-02-27T15:25:45.769Z,1021.82
2023-02-27T15:26:45.729Z,1021.52
2023-02-27T15:27:45.670Z,1021.90
2023-02-27T15:28:45.658Z,1021.87
2023-02-27T15:29:45.595Z,1021.87
2023-02-27T15:30:45.538Z,1021.78
2023-02-27T15:31:45.540Z,1021.46
2023-02-27T15:32:45.491Z,1021.58
2023-02-27T15:33:45.422Z,1021.49
2023-02-27T15:34:45.366Z,1021.47
2023-02-27T15:35:45.362Z,1021.54
2023-02-27T15:36:45.293Z,1021.83
2023-02-27T15:37:45.241Z,1021.46
2023-02-27T15:38:45.211Z,1021.47
2023-02-27T15:39:47.003Z,1021.45
2023-02-27T15:40:45.109Z,1021.43
2023-02-27T15:41:45.061Z,1021.43
2023-02-27T15:42:45.025Z,1021.54
2023-02-27T15:43:44.981Z,1021.45
2023-02-27T15:44:44.937Z,1021.47
2023-02-27T15:45:44.882Z,1021.38
2023-02-27T15:46:44.886Z,1021.45
2023-02-27T15:47:44.806Z,1021.43
2023-02-27T15:48:44.774Z,1021.47
2023-02-27T15:49:44.708Z,1021.47
2023-02-27T15:50:44.687Z,1021.78
2023-02-27T15:51:44.619Z,1021.79
2023-02-27T15:52:44.590Z,1021.44
2023-02-27T15:53:44.536Z,1021.45
2023-02-27T15:54:44.482Z,1021.40
2023-02-27T15:55:44.456Z,1021.57
2023-02-27T15:56:44.411Z,1021.47
2023-02-27T15:57:56.573Z,1021.74
2023-02-27T15:58:44.370Z,1021.44
2023-02-27T15:59:44.265Z,1021.43
2023-02-27T16:00:44.260Z,1021.46
2023-02-27T16:01:44.222Z,1021.45
2023-02-27T16:02:44.217Z,1021.45
2023-02-27T16:03:44.094Z,1021.48
2023-02-27T16:04:44.039Z,1021.42
2023-02-27T16:05:44.056Z,1021.53
2023-02-27T16:06:44.009Z,1021.47
2023-02-27T16:07:43.919Z,1021.51
2023-02-27T16:08:43.862Z,1021.44
2023-02-27T16:09:43.832Z,1021.81
2023-02-27T16:10:43.807Z,1021.49
2023-02-27T16:11:43.730Z,1021.43
2023-02-27T16:12:43.717Z,1021.72
2023-02-27T16:13:43.660Z,1021.76
2023-02-27T16:14:43.676Z,1021.48
2023-02-27T16:15:43.561Z,1021.77
2023-02-27T16:16:43.633Z,1021.42
2023-02-27T16:17:49.221Z,1021.45
2023-02-27T16:18:45.509Z,1021.40
2023-02-27T16:19:43.391Z,1021.74
2023-02-27T16:20:43.336Z,1021.78
2023-02-27T16:21:43.307Z,1021.38
2023-02-27T16:22:43.258Z,1021.46
2023-02-27T16:23:43.248Z,1021.73
2023-02-27T16:24:43.177Z,1021.79
2023-02-27T16:25:43.165Z,1021.45
2023-02-27T16:26:43.081Z,1021.52
2023-02-27T16:27:43.043Z,1021.78
2023-02-27T16:28:43.009Z,1021.44
2023-02-27T16:29:42.996Z,1021.58
2023-02-27T16:30:42.923Z,1021.46
2023-02-27T16:31:42.881Z,1021.83
2023-02-27T16:32:42.870Z,1021.47
2023-02-27T16:33:42.834Z,1021.51
2023-02-27T16:34:46.431Z,1021.49
2023-02-27T16:35:42.729Z,1021.54
2023-02-27T16:36:42.639Z,1021.53
2023-02-27T16:37:42.592Z,1021.88
2023-02-27T16:38:42.553Z,1021.49
2023-02-27T16:39:42.502Z,1021.48
2023-02-27T16:40:42.572Z,1021.50
2023-02-27T16:41:42.425Z,1021.82
2023-02-27T16:42:42.390Z,1021.86
2023-02-27T16:43:42.328Z,1021.87
2023-02-27T16:44:42.298Z,1021.51
2023-02-27T16:45:42.251Z,1021.65
2023-02-27T16:46:42.226Z,1021.81
2023-02-27T16:47:42.168Z,1021.82
2023-02-27T16:48:42.107Z,1021.68
2023-02-27T16:49:42.104Z,1021.53
2023-02-27T16:50:42.033Z,1021.83
2023-02-27T16:51:41.974Z,1021.77
2023-02-27T16:52:41.961Z,1021.43
2023-02-27T16:53:41.938Z,1021.48
2023-02-27T16:54:42.159Z,1021.47
2023-02-27T16:55:41.824Z,1021.47
2023-02-27T16:56:42.032Z,1021.44
2023-02-27T16:57:41.720Z,1021.53
2023-02-27T16:58:41.681Z,1021.41
2023-02-27T16:59:41.654Z,1021.46
2023-02-27T17:00:41.582Z,1021.45
2023-02-27T17:01:41.523Z,1021.43
2023-02-27T17:02:41.534Z,1021.77
2023-02-27T17:03:41.472Z,1021.77
2023-02-27T17:04:41.443Z,1021.49
2023-02-27T17:05:41.364Z,1021.47
2023-02-27T17:06:41.328Z,1021.43
2023-02-27T17:07:41.293Z,1021.51
2023-02-27T17:08:41.293Z,1021.48
2023-02-27T17:09:41.188Z,1021.47
2023-02-27T17:10:41.146Z,1021.51
2023-02-27T17:11:41.099Z,1021.86
2023-02-27T17:12:42.992Z,1021.53
2023-02-27T17:13:40.999Z,1021.55
2023-02-27T17:14:40.972Z,1021.93
2023-02-27T17:15:40.912Z,1021.95
2023-02-27T17:16:40.909Z,1021.69
2023-02-27T17:17:40.836Z,1021.69
2023-02-27T17:18:40.785Z,1021.92
2023-02-27T17:19:40.815Z,1021.89
2023-02-27T17:20:40.703Z,1021.58
2023-02-27T17:21:40.639Z,1021.95
2023-02-27T17:22:40.608Z,1021.59
2023-02-27T17:23:40.572Z,1021.61
2023-02-27T17:24:40.526Z,1021.63
2023-02-27T17:25:40.488Z,1021.97
2023-02-27T17:26:40.443Z,1021.88
2023-02-27T17:27:40.388Z,1021.99
2023-02-27T17:28:40.364Z,1021.71
2023-02-27T17:29:40.283Z,1022.04
2023-02-27T17:30:40.271Z,1021.69
2023-02-27T17:31:40.190Z,1022.06
2023-02-27T17:32:40.151Z,1021.75
2023-02-27T17:33:40.121Z,1021.75
2023-02-27T17:34:40.057Z,1021.76
2023-02-27T17:35:40.027Z,1021.75
2023-02-27T17:36:39.997Z,1021.76
2023-02-27T17:37:39.934Z,1021.72
2023-02-27T17:38:39.907Z,1021.76
2023-02-27T17:39:39.909Z,1021.74
2023-02-27T17:40:39.812Z,1021.76
2023-02-27T17:41:39.763Z,1021.78
2023-02-27T17:42:39.708Z,1021.77
2023-02-27T17:43:39.673Z,1021.79
2023-02-27T17:44:39.648Z,1021.81
2023-02-27T17:45:39.577Z,1021.79
2023-02-27T17:46:39.549Z,1021.84
2023-02-27T17:47:39.530Z,1021.79
2023-02-27T17:48:39.457Z,1021.87
2023-02-27T17:49:39.408Z,1021.86
2023-02-27T17:50:39.373Z,1021.88
2023-02-27T17:51:39.310Z,1021.86
2023-02-27T17:52:39.265Z,1022.19
2023-02-27T17:53:39.207Z,1021.93
2023-02-27T17:54:39.205Z,1021.90
2023-02-27T17:55:40.184Z,1022.27
2023-02-27T17:56:39.075Z,1021.93
2023-02-27T17:57:39.035Z,1021.95
2023-02-27T17:58:38.994Z,1021.97
2023-02-27T17:59:38.938Z,1022.02
2023-02-27T18:00:38.908Z,1021.97
2023-02-27T18:01:38.915Z,1022.30
2023-02-27T18:02:38.908Z,1022.32
2023-02-27T18:03:38.779Z,1022.34
2023-02-27T18:04:38.717Z,1022.37
2023-02-27T18:05:38.665Z,1022.35
2023-02-27T18:06:38.616Z,1022.06
2023-02-27T18:07:38.605Z,1022.42
2023-02-27T18:08:38.553Z,1022.12
2023-02-27T18:09:38.482Z,1022.15
2023-02-27T18:10:39.300Z,1022.16
2023-02-27T18:11:38.440Z,1022.19
2023-02-27T18:12:39.600Z,1022.20
2023-02-27T18:13:38.421Z,1022.20
2023-02-27T18:14:39.392Z,1022.18
2023-02-27T18:15:43.758Z,1022.19